Dobryanka, Russia
Current Conditions -  °F | °C
As of 4:00 PM on Monday 22 Dec 2014 (Local Time) from USPP Reporting Station
Light Snow Light Snow  
Wind Chill: 24°   Ceiling: 1700
Heat Index: 30°   Visibility: 4mi
Dew Point: 28°   Wind: 7mph
Humidity: 93%   Direction: 160°SSE
Pressure: 29.62"   Gusts: NA
Location:  58.46°N, 56.41°E
Report Text: USPP 221100Z 16003MPS 6000 -SN OVC017 M01/M02 Q1003 21290150NOSIG RMK QFE742/0989
Loading
Personal Weather Stations






























Interactive Weather Map New forecast layout! Learn more

10-Day Weather Forecast

Advertisements
Track Severe Weather on mobile